sensor_id;sensor_type;location;lat;lon;timestamp;temperature;humidity
40636;DHT22;26642;55.766;37.828;2023-05-14T00:01:51;18.10;50.70
40636;DHT22;26642;55.766;37.828;2023-05-14T00:04:17;18.10;50.90
40636;DHT22;26642;55.766;37.828;2023-05-14T00:06:44;18.00;50.80
40636;DHT22;26642;55.766;37.828;2023-05-14T00:09:11;18.00;51.00
40636;DHT22;26642;55.766;37.828;2023-05-14T00:11:37;18.00;51.30
40636;DHT22;26642;55.766;37.828;2023-05-14T00:14:04;18.00;51.40
40636;DHT22;26642;55.766;37.828;2023-05-14T00:16:30;17.90;51.30
40636;DHT22;26642;55.766;37.828;2023-05-14T00:18:56;17.90;51.40
40636;DHT22;26642;55.766;37.828;2023-05-14T00:21:21;17.90;51.40
40636;DHT22;26642;55.766;37.828;2023-05-14T00:23:48;17.80;51.50
40636;DHT22;26642;55.766;37.828;2023-05-14T00:26:14;17.80;51.60
40636;DHT22;26642;55.766;37.828;2023-05-14T00:28:43;17.80;51.70
40636;DHT22;26642;55.766;37.828;2023-05-14T00:31:08;17.80;51.80
40636;DHT22;26642;55.766;37.828;2023-05-14T00:33:34;17.80;51.90
40636;DHT22;26642;55.766;37.828;2023-05-14T00:36:00;17.80;52.10
40636;DHT22;26642;55.766;37.828;2023-05-14T00:38:26;17.80;51.90
40636;DHT22;26642;55.766;37.828;2023-05-14T00:40:53;17.70;52.00
40636;DHT22;26642;55.766;37.828;2023-05-14T00:43:20;17.70;52.20
40636;DHT22;26642;55.766;37.828;2023-05-14T00:45:51;17.70;52.40
40636;DHT22;26642;55.766;37.828;2023-05-14T00:48:17;17.70;52.30
40636;DHT22;26642;55.766;37.828;2023-05-14T00:50:44;17.70;52.30
40636;DHT22;26642;55.766;37.828;2023-05-14T00:53:10;17.70;52.30
40636;DHT22;26642;55.766;37.828;2023-05-14T00:55:37;17.70;52.50
40636;DHT22;26642;55.766;37.828;2023-05-14T00:58:09;17.60;52.80
40636;DHT22;26642;55.766;37.828;2023-05-14T01:00:36;17.70;52.70
40636;DHT22;26642;55.766;37.828;2023-05-14T01:03:05;17.60;52.80
40636;DHT22;26642;55.766;37.828;2023-05-14T01:08:45;17.60;53.00
40636;DHT22;26642;55.766;37.828;2023-05-14T01:14:19;17.60;53.10
40636;DHT22;26642;55.766;37.828;2023-05-14T01:16:49;17.50;53.20
40636;DHT22;26642;55.766;37.828;2023-05-14T01:19:40;17.60;53.60
40636;DHT22;26642;55.766;37.828;2023-05-14T01:22:06;17.50;53.30
40636;DHT22;26642;55.766;37.828;2023-05-14T01:24:32;17.50;53.70
40636;DHT22;26642;55.766;37.828;2023-05-14T01:30:18;17.40;53.70
40636;DHT22;26642;55.766;37.828;2023-05-14T01:32:50;17.40;53.70
40636;DHT22;26642;55.766;37.828;2023-05-14T01:35:17;17.40;53.80
40636;DHT22;26642;55.766;37.828;2023-05-14T01:37:43;17.40;53.90
40636;DHT22;26642;55.766;37.828;2023-05-14T01:40:12;17.40;54.10
40636;DHT22;26642;55.766;37.828;2023-05-14T01:42:39;17.30;54.00
40636;DHT22;26642;55.766;37.828;2023-05-14T01:45:06;17.30;54.00
40636;DHT22;26642;55.766;37.828;2023-05-14T01:47:32;17.30;54.10
40636;DHT22;26642;55.766;37.828;2023-05-14T01:49:58;17.30;54.20
40636;DHT22;26642;55.766;37.828;2023-05-14T01:52:24;17.30;54.00
40636;DHT22;26642;55.766;37.828;2023-05-14T01:54:50;17.30;54.00
40636;DHT22;26642;55.766;37.828;2023-05-14T01:57:16;17.20;54.10
40636;DHT22;26642;55.766;37.828;2023-05-14T01:59:42;17.20;54.00
40636;DHT22;26642;55.766;37.828;2023-05-14T02:02:08;17.20;54.00
40636;DHT22;26642;55.766;37.828;2023-05-14T02:04:34;17.20;54.20
40636;DHT22;26642;55.766;37.828;2023-05-14T02:07:00;17.20;54.20
40636;DHT22;26642;55.766;37.828;2023-05-14T02:09:26;17.20;54.20
40636;DHT22;26642;55.766;37.828;2023-05-14T02:11:52;17.20;53.90
40636;DHT22;26642;55.766;37.828;2023-05-14T02:14:18;17.20;53.90
40636;DHT22;26642;55.766;37.828;2023-05-14T02:16:44;17.20;53.80
40636;DHT22;26642;55.766;37.828;2023-05-14T02:19:10;17.20;53.70
40636;DHT22;26642;55.766;37.828;2023-05-14T02:21:36;17.30;53.60
40636;DHT22;26642;55.766;37.828;2023-05-14T02:24:02;17.40;53.50
40636;DHT22;26642;55.766;37.828;2023-05-14T02:26:28;17.40;53.20
40636;DHT22;26642;55.766;37.828;2023-05-14T02:28:54;17.50;53.00
40636;DHT22;26642;55.766;37.828;2023-05-14T02:31:20;17.60;52.90
40636;DHT22;26642;55.766;37.828;2023-05-14T02:33:46;17.60;52.70
40636;DHT22;26642;55.766;37.828;2023-05-14T02:36:12;17.60;52.50
40636;DHT22;26642;55.766;37.828;2023-05-14T02:38:38;17.70;52.50
40636;DHT22;26642;55.766;37.828;2023-05-14T02:41:04;17.70;52.50
40636;DHT22;26642;55.766;37.828;2023-05-14T02:43:31;17.60;52.40
40636;DHT22;26642;55.766;37.828;2023-05-14T02:45:56;17.70;52.40
40636;DHT22;26642;55.766;37.828;2023-05-14T02:48:22;17.70;52.40
40636;DHT22;26642;55.766;37.828;2023-05-14T02:50:49;17.70;52.30
40636;DHT22;26642;55.766;37.828;2023-05-14T02:53:17;17.70;52.30
40636;DHT22;26642;55.766;37.828;2023-05-14T02:55:43;17.70;52.30
40636;DHT22;26642;55.766;37.828;2023-05-14T02:58:08;17.70;52.10
40636;DHT22;26642;55.766;37.828;2023-05-14T03:00:35;17.60;52.10
40636;DHT22;26642;55.766;37.828;2023-05-14T03:03:01;17.60;52.20
40636;DHT22;26642;55.766;37.828;2023-05-14T03:05:27;17.50;52.10
40636;DHT22;26642;55.766;37.828;2023-05-14T03:07:53;17.50;52.30
40636;DHT22;26642;55.766;37.828;2023-05-14T03:10:19;17.50;52.50
40636;DHT22;26642;55.766;37.828;2023-05-14T03:12:45;17.40;52.50
40636;DHT22;26642;55.766;37.828;2023-05-14T03:15:12;17.40;52.60
40636;DHT22;26642;55.766;37.828;2023-05-14T03:17:37;17.30;52.60
40636;DHT22;26642;55.766;37.828;2023-05-14T03:20:04;17.30;52.70
40636;DHT22;26642;55.766;37.828;2023-05-14T03:22:30;17.20;52.80
40636;DHT22;26642;55.766;37.828;2023-05-14T03:24:56;17.20;52.80
40636;DHT22;26642;55.766;37.828;2023-05-14T03:27:22;17.20;53.00
40636;DHT22;26642;55.766;37.828;2023-05-14T03:29:48;17.10;53.00
40636;DHT22;26642;55.766;37.828;2023-05-14T03:32:14;17.10;53.00
40636;DHT22;26642;55.766;37.828;2023-05-14T03:34:40;17.10;53.20
40636;DHT22;26642;55.766;37.828;2023-05-14T03:37:06;17.10;53.40
40636;DHT22;26642;55.766;37.828;2023-05-14T03:39:32;17.10;53.20
40636;DHT22;26642;55.766;37.828;2023-05-14T03:41:58;17.10;53.40
40636;DHT22;26642;55.766;37.828;2023-05-14T03:44:24;17.00;53.30
40636;DHT22;26642;55.766;37.828;2023-05-14T03:46:50;17.10;53.30
40636;DHT22;26642;55.766;37.828;2023-05-14T03:49:16;17.20;53.10
40636;DHT22;26642;55.766;37.828;2023-05-14T03:51:42;17.40;53.00
40636;DHT22;26642;55.766;37.828;2023-05-14T03:54:08;17.60;52.70
40636;DHT22;26642;55.766;37.828;2023-05-14T03:56:34;17.80;52.20
40636;DHT22;26642;55.766;37.828;2023-05-14T03:59:01;18.00;51.80
40636;DHT22;26642;55.766;37.828;2023-05-14T04:01:27;18.30;51.40
40636;DHT22;26642;55.766;37.828;2023-05-14T04:03:53;18.50;51.00
40636;DHT22;26642;55.766;37.828;2023-05-14T04:06:20;18.60;50.70
40636;DHT22;26642;55.766;37.828;2023-05-14T04:08:46;18.80;50.40
40636;DHT22;26642;55.766;37.828;2023-05-14T04:11:11;18.90;50.40
40636;DHT22;26642;55.766;37.828;2023-05-14T04:13:37;19.00;49.80
40636;DHT22;26642;55.766;37.828;2023-05-14T04:16:03;19.10;49.70
40636;DHT22;26642;55.766;37.828;2023-05-14T04:18:29;19.30;49.40
40636;DHT22;26642;55.766;37.828;2023-05-14T04:20:59;19.40;49.20
40636;DHT22;26642;55.766;37.828;2023-05-14T04:23:25;19.50;49.10
40636;DHT22;26642;55.766;37.828;2023-05-14T04:25:51;19.60;48.90
40636;DHT22;26642;55.766;37.828;2023-05-14T04:28:17;19.60;48.80
40636;DHT22;26642;55.766;37.828;2023-05-14T04:30:43;19.70;48.80
40636;DHT22;26642;55.766;37.828;2023-05-14T04:33:10;19.90;48.40
40636;DHT22;26642;55.766;37.828;2023-05-14T04:35:36;20.00;48.10
40636;DHT22;26642;55.766;37.828;2023-05-14T04:38:02;20.20;47.70
40636;DHT22;26642;55.766;37.828;2023-05-14T04:40:28;20.50;47.20
40636;DHT22;26642;55.766;37.828;2023-05-14T04:42:55;20.70;47.10
40636;DHT22;26642;55.766;37.828;2023-05-14T04:45:22;20.90;46.40
40636;DHT22;26642;55.766;37.828;2023-05-14T04:47:48;21.20;46.30
40636;DHT22;26642;55.766;37.828;2023-05-14T04:50:14;21.30;46.10
40636;DHT22;26642;55.766;37.828;2023-05-14T04:52:40;21.40;45.80
40636;DHT22;26642;55.766;37.828;2023-05-14T04:55:06;21.60;47.10
40636;DHT22;26642;55.766;37.828;2023-05-14T04:57:33;21.90;47.70
40636;DHT22;26642;55.766;37.828;2023-05-14T04:59:58;22.10;47.70
40636;DHT22;26642;55.766;37.828;2023-05-14T05:02:25;22.20;47.30
40636;DHT22;26642;55.766;37.828;2023-05-14T05:04:50;22.30;47.00
40636;DHT22;26642;55.766;37.828;2023-05-14T05:07:16;22.50;46.40
40636;DHT22;26642;55.766;37.828;2023-05-14T05:09:42;22.70;45.90
40636;DHT22;26642;55.766;37.828;2023-05-14T05:12:09;22.80;45.60
40636;DHT22;26642;55.766;37.828;2023-05-14T05:14:35;23.00;44.80
40636;DHT22;26642;55.766;37.828;2023-05-14T05:17:01;23.20;44.30
40636;DHT22;26642;55.766;37.828;2023-05-14T05:19:26;23.40;43.70
40636;DHT22;26642;55.766;37.828;2023-05-14T05:21:52;23.70;42.90
40636;DHT22;26642;55.766;37.828;2023-05-14T05:24:18;23.90;42.20
40636;DHT22;26642;55.766;37.828;2023-05-14T05:26:44;24.10;41.80
40636;DHT22;26642;55.766;37.828;2023-05-14T05:29:10;24.30;41.20
40636;DHT22;26642;55.766;37.828;2023-05-14T05:31:36;24.50;41.00
40636;DHT22;26642;55.766;37.828;2023-05-14T05:34:03;24.60;40.50
40636;DHT22;26642;55.766;37.828;2023-05-14T05:36:29;24.80;40.00
40636;DHT22;26642;55.766;37.828;2023-05-14T05:38:55;25.00;39.40
40636;DHT22;26642;55.766;37.828;2023-05-14T05:41:21;25.10;39.00
40636;DHT22;26642;55.766;37.828;2023-05-14T05:43:47;25.20;39.00
40636;DHT22;26642;55.766;37.828;2023-05-14T05:46:13;25.40;38.70
40636;DHT22;26642;55.766;37.828;2023-05-14T05:48:39;25.50;39.40
40636;DHT22;26642;55.766;37.828;2023-05-14T05:51:05;25.60;38.60
40636;DHT22;26642;55.766;37.828;2023-05-14T05:53:30;25.80;38.20
40636;DHT22;26642;55.766;37.828;2023-05-14T05:55:56;25.90;37.80
40636;DHT22;26642;55.766;37.828;2023-05-14T05:58:22;26.00;37.50
40636;DHT22;26642;55.766;37.828;2023-05-14T06:00:48;26.00;38.20
40636;DHT22;26642;55.766;37.828;2023-05-14T06:03:14;26.00;37.30
40636;DHT22;26642;55.766;37.828;2023-05-14T06:05:40;26.00;36.90
40636;DHT22;26642;55.766;37.828;2023-05-14T06:08:06;26.00;37.00
40636;DHT22;26642;55.766;37.828;2023-05-14T06:10:32;26.00;37.00
40636;DHT22;26642;55.766;37.828;2023-05-14T06:12:59;26.00;37.00
40636;DHT22;26642;55.766;37.828;2023-05-14T06:15:25;25.90;37.10
40636;DHT22;26642;55.766;37.828;2023-05-14T06:17:50;26.00;37.30
40636;DHT22;26642;55.766;37.828;2023-05-14T06:20:16;26.00;37.40
40636;DHT22;26642;55.766;37.828;2023-05-14T06:22:42;26.00;37.10
40636;DHT22;26642;55.766;37.828;2023-05-14T06:25:09;26.00;37.30
40636;DHT22;26642;55.766;37.828;2023-05-14T06:27:35;26.00;37.30
40636;DHT22;26642;55.766;37.828;2023-05-14T06:30:01;26.10;37.30
40636;DHT22;26642;55.766;37.828;2023-05-14T06:32:28;26.10;36.80
40636;DHT22;26642;55.766;37.828;2023-05-14T06:34:54;26.10;36.20
40636;DHT22;26642;55.766;37.828;2023-05-14T06:37:19;26.10;36.00
40636;DHT22;26642;55.766;37.828;2023-05-14T06:39:45;26.10;35.90
40636;DHT22;26642;55.766;37.828;2023-05-14T06:42:17;26.10;36.10
40636;DHT22;26642;55.766;37.828;2023-05-14T06:44:44;26.10;36.00
40636;DHT22;26642;55.766;37.828;2023-05-14T06:47:10;26.10;36.10
40636;DHT22;26642;55.766;37.828;2023-05-14T06:49:36;26.00;35.80
40636;DHT22;26642;55.766;37.828;2023-05-14T06:52:02;26.00;35.50
40636;DHT22;26642;55.766;37.828;2023-05-14T06:54:29;25.90;35.50
40636;DHT22;26642;55.766;37.828;2023-05-14T06:56:55;25.80;35.20
40636;DHT22;26642;55.766;37.828;2023-05-14T06:59:22;25.90;35.40
40636;DHT22;26642;55.766;37.828;2023-05-14T07:01:48;25.70;35.40
40636;DHT22;26642;55.766;37.828;2023-05-14T07:04:14;25.50;35.40
40636;DHT22;26642;55.766;37.828;2023-05-14T07:06:40;25.50;36.00
40636;DHT22;26642;55.766;37.828;2023-05-14T07:09:05;25.50;35.90
40636;DHT22;26642;55.766;37.828;2023-05-14T07:11:32;25.50;36.00
40636;DHT22;26642;55.766;37.828;2023-05-14T07:13:58;25.20;36.30
40636;DHT22;26642;55.766;37.828;2023-05-14T07:16:24;25.00;37.00
40636;DHT22;26642;55.766;37.828;2023-05-14T07:18:50;24.60;37.50
40636;DHT22;26642;55.766;37.828;2023-05-14T07:21:16;24.50;37.90
40636;DHT22;26642;55.766;37.828;2023-05-14T07:23:42;24.30;38.30
40636;DHT22;26642;55.766;37.828;2023-05-14T07:26:08;24.20;38.80
40636;DHT22;26642;55.766;37.828;2023-05-14T07:28:34;24.00;39.00
40636;DHT22;26642;55.766;37.828;2023-05-14T07:31:02;23.90;39.30
40636;DHT22;26642;55.766;37.828;2023-05-14T07:33:36;23.80;39.60
40636;DHT22;26642;55.766;37.828;2023-05-14T07:36:02;23.70;39.70
40636;DHT22;26642;55.766;37.828;2023-05-14T07:38:28;23.50;39.90
40636;DHT22;26642;55.766;37.828;2023-05-14T07:40:54;23.50;40.20
40636;DHT22;26642;55.766;37.828;2023-05-14T07:43:20;23.30;40.40
40636;DHT22;26642;55.766;37.828;2023-05-14T07:45:46;23.20;41.00
40636;DHT22;26642;55.766;37.828;2023-05-14T07:48:12;23.10;40.60
40636;DHT22;26642;55.766;37.828;2023-05-14T07:50:38;23.10;40.60
40636;DHT22;26642;55.766;37.828;2023-05-14T07:53:04;23.00;40.90
40636;DHT22;26642;55.766;37.828;2023-05-14T07:55:30;23.00;40.80
40636;DHT22;26642;55.766;37.828;2023-05-14T07:57:56;22.90;40.80
40636;DHT22;26642;55.766;37.828;2023-05-14T08:00:22;22.80;40.80
40636;DHT22;26642;55.766;37.828;2023-05-14T08:02:48;22.80;41.30
40636;DHT22;26642;55.766;37.828;2023-05-14T08:05:14;22.70;41.40
40636;DHT22;26642;55.766;37.828;2023-05-14T08:07:41;22.60;42.00
40636;DHT22;26642;55.766;37.828;2023-05-14T08:10:07;22.60;42.00
40636;DHT22;26642;55.766;37.828;2023-05-14T08:12:33;22.60;42.30
40636;DHT22;26642;55.766;37.828;2023-05-14T08:14:59;22.60;42.40
40636;DHT22;26642;55.766;37.828;2023-05-14T08:17:25;22.60;42.60
40636;DHT22;26642;55.766;37.828;2023-05-14T08:19:51;22.70;42.40
40636;DHT22;26642;55.766;37.828;2023-05-14T08:22:18;22.70;42.70
40636;DHT22;26642;55.766;37.828;2023-05-14T08:24:44;22.70;42.60
40636;DHT22;26642;55.766;37.828;2023-05-14T08:27:10;22.70;42.30
40636;DHT22;26642;55.766;37.828;2023-05-14T08:29:36;22.60;42.40
40636;DHT22;26642;55.766;37.828;2023-05-14T08:32:02;22.50;42.40
40636;DHT22;26642;55.766;37.828;2023-05-14T08:34:28;22.50;42.10
40636;DHT22;26642;55.766;37.828;2023-05-14T08:36:54;22.40;41.90
40636;DHT22;26642;55.766;37.828;2023-05-14T08:39:20;22.40;40.70
40636;DHT22;26642;55.766;37.828;2023-05-14T08:41:47;22.30;40.60
40636;DHT22;26642;55.766;37.828;2023-05-14T08:46:40;22.20;40.50
40636;DHT22;26642;55.766;37.828;2023-05-14T08:49:34;22.20;40.60
40636;DHT22;26642;55.766;37.828;2023-05-14T08:52:03;22.10;40.60
40636;DHT22;26642;55.766;37.828;2023-05-14T08:54:29;22.10;40.70
40636;DHT22;26642;55.766;37.828;2023-05-14T08:56:57;22.00;40.50
40636;DHT22;26642;55.766;37.828;2023-05-14T08:59:24;22.00;40.50
40636;DHT22;26642;55.766;37.828;2023-05-14T09:01:54;21.90;40.60
40636;DHT22;26642;55.766;37.828;2023-05-14T09:04:22;21.90;41.00
40636;DHT22;26642;55.766;37.828;2023-05-14T09:06:50;22.00;40.80
40636;DHT22;26642;55.766;37.828;2023-05-14T09:09:16;22.00;40.50
40636;DHT22;26642;55.766;37.828;2023-05-14T09:11:46;22.00;40.40
40636;DHT22;26642;55.766;37.828;2023-05-14T09:14:12;22.00;40.40
40636;DHT22;26642;55.766;37.828;2023-05-14T09:16:39;21.90;40.50
40636;DHT22;26642;55.766;37.828;2023-05-14T09:19:07;21.90;40.40
40636;DHT22;26642;55.766;37.828;2023-05-14T09:21:34;21.80;40.50
40636;DHT22;26642;55.766;37.828;2023-05-14T09:24:00;21.70;40.70
40636;DHT22;26642;55.766;37.828;2023-05-14T09:26:26;21.70;40.60
40636;DHT22;26642;55.766;37.828;2023-05-14T09:29:00;21.70;40.60
40636;DHT22;26642;55.766;37.828;2023-05-14T09:31:30;21.70;40.50
40636;DHT22;26642;55.766;37.828;2023-05-14T09:33:57;21.60;40.90
40636;DHT22;26642;55.766;37.828;2023-05-14T09:36:24;21.60;40.50
40636;DHT22;26642;55.766;37.828;2023-05-14T09:38:56;21.60;40.50
40636;DHT22;26642;55.766;37.828;2023-05-14T09:41:22;21.60;40.40
40636;DHT22;26642;55.766;37.828;2023-05-14T09:43:49;21.50;40.20
40636;DHT22;26642;55.766;37.828;2023-05-14T09:46:16;21.50;40.30
40636;DHT22;26642;55.766;37.828;2023-05-14T09:48:42;21.50;40.50
40636;DHT22;26642;55.766;37.828;2023-05-14T09:51:10;21.50;40.80
40636;DHT22;26642;55.766;37.828;2023-05-14T09:53:37;21.50;40.70
40636;DHT22;26642;55.766;37.828;2023-05-14T09:56:06;21.50;40.80
40636;DHT22;26642;55.766;37.828;2023-05-14T09:58:32;21.50;40.60
40636;DHT22;26642;55.766;37.828;2023-05-14T10:00:58;21.40;40.50
40636;DHT22;26642;55.766;37.828;2023-05-14T10:03:28;21.40;40.50
40636;DHT22;26642;55.766;37.828;2023-05-14T10:05:59;21.30;41.00
40636;DHT22;26642;55.766;37.828;2023-05-14T10:08:35;21.40;41.10
40636;DHT22;26642;55.766;37.828;2023-05-14T10:11:18;21.40;40.60
40636;DHT22;26642;55.766;37.828;2023-05-14T10:14:10;21.40;40.60
40636;DHT22;26642;55.766;37.828;2023-05-14T10:16:49;21.40;41.20
40636;DHT22;26642;55.766;37.828;2023-05-14T10:19:17;21.50;41.80
40636;DHT22;26642;55.766;37.828;2023-05-14T10:21:47;21.50;41.40
40636;DHT22;26642;55.766;37.828;2023-05-14T10:24:15;21.50;41.30
40636;DHT22;26642;55.766;37.828;2023-05-14T10:26:41;21.50;41.20
40636;DHT22;26642;55.766;37.828;2023-05-14T10:29:12;21.50;41.10
40636;DHT22;26642;55.766;37.828;2023-05-14T10:34:32;21.40;40.60
40636;DHT22;26642;55.766;37.828;2023-05-14T10:37:01;21.30;40.90
40636;DHT22;26642;55.766;37.828;2023-05-14T10:39:49;21.40;41.00
40636;DHT22;26642;55.766;37.828;2023-05-14T10:42:18;21.30;40.60
40636;DHT22;26642;55.766;37.828;2023-05-14T10:44:55;21.30;40.70
40636;DHT22;26642;55.766;37.828;2023-05-14T10:47:30;21.30;40.70
40636;DHT22;26642;55.766;37.828;2023-05-14T10:50:02;21.30;40.60
40636;DHT22;26642;55.766;37.828;2023-05-14T10:52:30;21.30;40.70
40636;DHT22;26642;55.766;37.828;2023-05-14T10:54:58;21.30;41.50
40636;DHT22;26642;55.766;37.828;2023-05-14T10:57:30;21.40;42.20
40636;DHT22;26642;55.766;37.828;2023-05-14T10:59:58;21.40;42.80
40636;DHT22;26642;55.766;37.828;2023-05-14T11:02:26;21.50;45.40
40636;DHT22;26642;55.766;37.828;2023-05-14T11:05:13;21.60;45.10
40636;DHT22;26642;55.766;37.828;2023-05-14T11:07:42;21.60;42.80
40636;DHT22;26642;55.766;37.828;2023-05-14T11:10:10;21.50;41.50
40636;DHT22;26642;55.766;37.828;2023-05-14T11:12:44;21.50;40.90
40636;DHT22;26642;55.766;37.828;2023-05-14T11:15:22;21.50;40.60
40636;DHT22;26642;55.766;37.828;2023-05-14T11:17:49;21.40;41.00
40636;DHT22;26642;55.766;37.828;2023-05-14T11:20:16;21.40;41.10
40636;DHT22;26642;55.766;37.828;2023-05-14T11:22:44;21.30;41.10
40636;DHT22;26642;55.766;37.828;2023-05-14T11:25:11;21.30;41.50
40636;DHT22;26642;55.766;37.828;2023-05-14T11:27:42;21.30;41.80
40636;DHT22;26642;55.766;37.828;2023-05-14T11:30:16;21.30;42.20
40636;DHT22;26642;55.766;37.828;2023-05-14T11:32:44;21.30;41.90
40636;DHT22;26642;55.766;37.828;2023-05-14T11:35:11;21.30;42.00
40636;DHT22;26642;55.766;37.828;2023-05-14T11:37:37;21.20;41.90
40636;DHT22;26642;55.766;37.828;2023-05-14T11:40:13;21.20;41.90
40636;DHT22;26642;55.766;37.828;2023-05-14T11:42:40;21.10;41.90
40636;DHT22;26642;55.766;37.828;2023-05-14T11:45:09;21.10;41.80
40636;DHT22;26642;55.766;37.828;2023-05-14T11:47:36;21.10;41.50
40636;DHT22;26642;55.766;37.828;2023-05-14T11:50:02;21.10;41.40
40636;DHT22;26642;55.766;37.828;2023-05-14T11:52:28;21.00;41.50
40636;DHT22;26642;55.766;37.828;2023-05-14T11:54:54;21.00;42.00
40636;DHT22;26642;55.766;37.828;2023-05-14T11:57:21;21.10;42.60
40636;DHT22;26642;55.766;37.828;2023-05-14T11:59:48;21.00;42.50
40636;DHT22;26642;55.766;37.828;2023-05-14T12:02:17;21.10;42.20
40636;DHT22;26642;55.766;37.828;2023-05-14T12:04:49;21.10;42.30
40636;DHT22;26642;55.766;37.828;2023-05-14T12:07:16;21.00;42.50
40636;DHT22;26642;55.766;37.828;2023-05-14T12:09:45;21.00;42.70
40636;DHT22;26642;55.766;37.828;2023-05-14T12:12:18;21.00;42.50
40636;DHT22;26642;55.766;37.828;2023-05-14T12:14:45;21.00;42.30
40636;DHT22;26642;55.766;37.828;2023-05-14T12:17:19;21.00;42.40
40636;DHT22;26642;55.766;37.828;2023-05-14T12:19:47;21.00;42.30
40636;DHT22;26642;55.766;37.828;2023-05-14T12:22:15;21.00;42.30
40636;DHT22;26642;55.766;37.828;2023-05-14T12:24:43;21.00;42.40
40636;DHT22;26642;55.766;37.828;2023-05-14T12:27:09;21.00;43.30
40636;DHT22;26642;55.766;37.828;2023-05-14T12:29:39;20.90;42.80
40636;DHT22;26642;55.766;37.828;2023-05-14T12:32:08;20.90;43.00
40636;DHT22;26642;55.766;37.828;2023-05-14T12:34:36;20.90;43.20
40636;DHT22;26642;55.766;37.828;2023-05-14T12:37:02;20.80;43.30
40636;DHT22;26642;55.766;37.828;2023-05-14T12:39:32;20.80;43.20
40636;DHT22;26642;55.766;37.828;2023-05-14T12:41:58;20.80;43.20
40636;DHT22;26642;55.766;37.828;2023-05-14T12:44:24;20.70;43.30
40636;DHT22;26642;55.766;37.828;2023-05-14T12:46:50;20.70;43.20
40636;DHT22;26642;55.766;37.828;2023-05-14T12:49:16;20.70;43.10
40636;DHT22;26642;55.766;37.828;2023-05-14T12:51:42;20.60;43.20
40636;DHT22;26642;55.766;37.828;2023-05-14T12:54:08;20.60;43.10
40636;DHT22;26642;55.766;37.828;2023-05-14T12:56:37;20.60;43.20
40636;DHT22;26642;55.766;37.828;2023-05-14T12:59:03;20.60;43.10
40636;DHT22;26642;55.766;37.828;2023-05-14T13:01:29;20.50;43.10
40636;DHT22;26642;55.766;37.828;2023-05-14T13:03:55;20.50;43.10
40636;DHT22;26642;55.766;37.828;2023-05-14T13:06:22;20.50;43.20
40636;DHT22;26642;55.766;37.828;2023-05-14T13:08:48;20.50;43.30
40636;DHT22;26642;55.766;37.828;2023-05-14T13:11:14;20.50;43.40
40636;DHT22;26642;55.766;37.828;2023-05-14T13:13:40;20.50;43.50
40636;DHT22;26642;55.766;37.828;2023-05-14T13:16:07;20.50;43.10
40636;DHT22;26642;55.766;37.828;2023-05-14T13:18:32;20.40;43.00
40636;DHT22;26642;55.766;37.828;2023-05-14T13:20:58;20.40;43.00
40636;DHT22;26642;55.766;37.828;2023-05-14T13:23:25;20.40;43.20
40636;DHT22;26642;55.766;37.828;2023-05-14T13:25:51;20.40;43.40
40636;DHT22;26642;55.766;37.828;2023-05-14T13:28:17;20.40;43.60
40636;DHT22;26642;55.766;37.828;2023-05-14T13:31:05;20.40;43.80
40636;DHT22;26642;55.766;37.828;2023-05-14T13:33:35;20.40;43.80
40636;DHT22;26642;55.766;37.828;2023-05-14T13:36:02;20.30;43.70
40636;DHT22;26642;55.766;37.828;2023-05-14T13:38:29;20.30;44.00
40636;DHT22;26642;55.766;37.828;2023-05-14T13:40:55;20.30;44.10
40636;DHT22;26642;55.766;37.828;2023-05-14T13:43:27;20.30;44.10
40636;DHT22;26642;55.766;37.828;2023-05-14T13:45:53;20.20;44.10
40636;DHT22;26642;55.766;37.828;2023-05-14T13:48:19;20.20;44.20
40636;DHT22;26642;55.766;37.828;2023-05-14T13:50:45;20.10;44.30
40636;DHT22;26642;55.766;37.828;2023-05-14T13:53:11;20.10;44.30
40636;DHT22;26642;55.766;37.828;2023-05-14T13:55:37;20.10;44.40
40636;DHT22;26642;55.766;37.828;2023-05-14T13:58:03;20.10;44.30
40636;DHT22;26642;55.766;37.828;2023-05-14T14:00:29;20.00;44.30
40636;DHT22;26642;55.766;37.828;2023-05-14T14:02:55;20.00;44.30
40636;DHT22;26642;55.766;37.828;2023-05-14T14:05:21;20.00;44.30
40636;DHT22;26642;55.766;37.828;2023-05-14T14:07:48;20.00;44.50
40636;DHT22;26642;55.766;37.828;2023-05-14T14:10:14;20.00;44.50
40636;DHT22;26642;55.766;37.828;2023-05-14T14:12:40;20.00;44.50
40636;DHT22;26642;55.766;37.828;2023-05-14T14:15:06;20.00;44.40
40636;DHT22;26642;55.766;37.828;2023-05-14T14:17:32;20.00;44.40
40636;DHT22;26642;55.766;37.828;2023-05-14T14:19:59;20.00;44.30
40636;DHT22;26642;55.766;37.828;2023-05-14T14:22:25;20.00;44.40
40636;DHT22;26642;55.766;37.828;2023-05-14T14:24:51;19.90;44.50
40636;DHT22;26642;55.766;37.828;2023-05-14T14:27:17;19.90;44.60
40636;DHT22;26642;55.766;37.828;2023-05-14T14:29:43;20.00;44.60
40636;DHT22;26642;55.766;37.828;2023-05-14T14:32:09;20.00;44.40
40636;DHT22;26642;55.766;37.828;2023-05-14T14:34:34;19.90;44.30
40636;DHT22;26642;55.766;37.828;2023-05-14T14:37:00;19.90;44.40
40636;DHT22;26642;55.766;37.828;2023-05-14T14:39:26;19.90;44.60
40636;DHT22;26642;55.766;37.828;2023-05-14T14:41:52;19.80;44.80
40636;DHT22;26642;55.766;37.828;2023-05-14T14:44:18;19.80;44.90
40636;DHT22;26642;55.766;37.828;2023-05-14T14:46:44;19.80;44.90
40636;DHT22;26642;55.766;37.828;2023-05-14T14:49:10;19.80;44.90
40636;DHT22;26642;55.766;37.828;2023-05-14T14:51:36;19.80;45.60
40636;DHT22;26642;55.766;37.828;2023-05-14T14:54:02;19.70;44.90
40636;DHT22;26642;55.766;37.828;2023-05-14T14:56:29;19.70;44.80
40636;DHT22;26642;55.766;37.828;2023-05-14T14:58:56;19.70;44.90
40636;DHT22;26642;55.766;37.828;2023-05-14T15:01:21;19.70;45.10
40636;DHT22;26642;55.766;37.828;2023-05-14T15:03:48;19.60;45.10
40636;DHT22;26642;55.766;37.828;2023-05-14T15:06:14;19.60;45.20
40636;DHT22;26642;55.766;37.828;2023-05-14T15:08:40;19.60;45.20
40636;DHT22;26642;55.766;37.828;2023-05-14T15:11:07;19.60;45.10
40636;DHT22;26642;55.766;37.828;2023-05-14T15:13:33;19.60;45.10
40636;DHT22;26642;55.766;37.828;2023-05-14T15:15:59;19.50;45.20
40636;DHT22;26642;55.766;37.828;2023-05-14T15:18:25;19.50;45.30
40636;DHT22;26642;55.766;37.828;2023-05-14T15:20:51;19.50;45.30
40636;DHT22;26642;55.766;37.828;2023-05-14T15:23:18;19.40;45.30
40636;DHT22;26642;55.766;37.828;2023-05-14T15:25:43;19.50;45.40
40636;DHT22;26642;55.766;37.828;2023-05-14T15:28:10;19.40;45.30
40636;DHT22;26642;55.766;37.828;2023-05-14T15:30:35;19.40;45.30